createdAt,value
2023-02-06T00:01:32.854Z,2.90
2023-02-06T00:04:00.234Z,2.90
2023-02-06T00:06:27.653Z,3.00
2023-02-06T00:08:54.881Z,3.00
2023-02-06T00:11:22.260Z,3.10
2023-02-06T00:13:50.173Z,3.10
2023-02-06T00:16:23.565Z,3.10
2023-02-06T00:18:52.113Z,3.20
2023-02-06T00:21:22.011Z,3.20
2023-02-06T00:23:49.695Z,3.20
2023-02-06T00:26:17.317Z,3.20
2023-02-06T00:28:45.277Z,3.20
2023-02-06T00:31:13.327Z,3.20
2023-02-06T00:33:41.012Z,3.30
2023-02-06T00:36:08.981Z,3.20
2023-02-06T00:38:38.058Z,3.20
2023-02-06T00:41:05.956Z,3.20
2023-02-06T00:43:33.277Z,3.20
2023-02-06T00:46:00.442Z,3.20
2023-02-06T00:48:27.845Z,3.20
2023-02-06T00:50:55.354Z,3.20
2023-02-06T00:53:23.226Z,3.20
2023-02-06T00:55:50.620Z,3.20
2023-02-06T00:58:17.952Z,3.40
2023-02-06T01:00:45.229Z,3.20
2023-02-06T01:03:12.645Z,3.20
2023-02-06T01:05:40.051Z,3.20
2023-02-06T01:08:07.372Z,3.20
2023-02-06T01:10:34.853Z,3.20
2023-02-06T01:13:02.346Z,4.30
2023-02-06T01:15:29.471Z,3.20
2023-02-06T01:17:56.888Z,3.20
2023-02-06T01:20:24.814Z,3.30
2023-02-06T01:22:52.603Z,3.30
2023-02-06T01:25:20.155Z,3.20
2023-02-06T01:27:48.234Z,3.20
2023-02-06T01:30:15.413Z,3.20
2023-02-06T01:32:43.329Z,3.20
2023-02-06T01:35:12.708Z,3.20
2023-02-06T01:37:41.360Z,3.20
2023-02-06T01:40:14.005Z,3.20
2023-02-06T01:42:41.741Z,3.20
2023-02-06T01:45:27.041Z,3.20
2023-02-06T01:48:09.037Z,3.30
2023-02-06T01:50:39.706Z,3.30
2023-02-06T01:53:07.425Z,3.30
2023-02-06T01:55:37.528Z,3.30
2023-02-06T01:58:06.071Z,3.30
2023-02-06T02:00:33.357Z,3.30
2023-02-06T02:03:01.863Z,3.30
2023-02-06T02:05:33.135Z,3.30
2023-02-06T02:08:10.644Z,3.30
2023-02-06T02:10:38.308Z,3.30
2023-02-06T02:13:05.485Z,3.30
2023-02-06T02:15:57.644Z,3.30
2023-02-06T02:18:31.021Z,3.30
2023-02-06T02:21:41.306Z,3.30
2023-02-06T02:24:49.827Z,3.30
2023-02-06T02:27:48.918Z,3.30
2023-02-06T02:31:12.363Z,3.30
2023-02-06T02:34:06.816Z,3.30
2023-02-06T02:36:55.034Z,3.30
2023-02-06T02:39:46.490Z,3.30
2023-02-06T02:42:46.715Z,3.30
2023-02-06T02:45:44.837Z,3.40
2023-02-06T02:48:37.574Z,3.30
2023-02-06T02:51:05.482Z,3.40
2023-02-06T02:53:32.770Z,3.40
2023-02-06T02:56:00.255Z,3.40
2023-02-06T02:58:33.788Z,3.30
2023-02-06T03:01:08.573Z,3.30
2023-02-06T03:03:38.834Z,3.30
2023-02-06T03:06:58.431Z,3.30
2023-02-06T03:09:54.591Z,3.30
2023-02-06T03:12:48.157Z,3.30
2023-02-06T03:15:37.236Z,3.30
2023-02-06T03:18:47.345Z,3.30
2023-02-06T03:21:20.406Z,3.30
2023-02-06T03:23:53.283Z,3.20
2023-02-06T03:26:23.953Z,3.20
2023-02-06T03:29:01.199Z,3.20
2023-02-06T03:31:55.225Z,3.20
2023-02-06T03:35:05.432Z,3.20
2023-02-06T03:37:33.301Z,3.20
2023-02-06T03:40:01.884Z,3.20
2023-02-06T03:42:31.057Z,3.10
2023-02-06T03:45:06.836Z,3.10
2023-02-06T03:47:37.459Z,2.60
2023-02-06T03:50:06.183Z,3.10
2023-02-06T03:52:43.961Z,3.10
2023-02-06T03:55:18.984Z,3.00
2023-02-06T03:57:51.433Z,3.00
2023-02-06T04:00:19.614Z,3.00
2023-02-06T04:02:48.056Z,2.90
2023-02-06T04:05:17.854Z,2.90
2023-02-06T04:07:45.303Z,2.90
2023-02-06T04:10:12.567Z,2.90
2023-02-06T04:12:39.900Z,2.90
2023-02-06T04:15:07.646Z,3.00
2023-02-06T04:17:49.735Z,2.90
2023-02-06T04:20:21.120Z,3.00
2023-02-06T04:22:48.372Z,2.90
2023-02-06T04:25:15.514Z,2.90
2023-02-06T04:27:42.675Z,2.90
2023-02-06T04:30:10.644Z,2.90
2023-02-06T04:32:37.770Z,2.90
2023-02-06T04:35:05.646Z,2.90
2023-02-06T04:37:33.200Z,2.90
2023-02-06T04:40:00.253Z,3.00
2023-02-06T04:42:27.414Z,2.90
2023-02-06T04:44:54.523Z,3.00
2023-02-06T04:47:21.611Z,3.00
2023-02-06T04:49:48.752Z,3.00
2023-02-06T04:52:15.830Z,3.00
2023-02-06T04:54:42.870Z,3.10
2023-02-06T04:57:10.012Z,3.00
2023-02-06T04:59:37.252Z,3.00
2023-02-06T05:02:04.323Z,3.00
2023-02-06T05:04:31.428Z,3.00
2023-02-06T05:06:58.499Z,3.00
2023-02-06T05:09:25.669Z,3.00
2023-02-06T05:11:52.766Z,3.00
2023-02-06T05:14:19.839Z,3.00
2023-02-06T05:16:47.117Z,3.10
2023-02-06T05:19:14.149Z,3.00
2023-02-06T05:21:41.324Z,3.00
2023-02-06T05:24:08.416Z,3.00
2023-02-06T05:26:35.712Z,3.00
2023-02-06T05:29:02.745Z,3.00
2023-02-06T05:31:29.886Z,3.10
2023-02-06T05:33:57.066Z,3.00
2023-02-06T05:36:24.220Z,3.00
2023-02-06T05:38:51.523Z,3.00
2023-02-06T05:41:18.746Z,3.00
2023-02-06T05:43:45.924Z,3.00
2023-02-06T05:46:13.601Z,3.00
2023-02-06T05:48:41.460Z,3.00
2023-02-06T05:51:08.806Z,3.00
2023-02-06T05:53:36.190Z,3.00
2023-02-06T05:56:03.672Z,3.00
2023-02-06T05:58:31.168Z,3.00
2023-02-06T06:00:58.499Z,3.00
2023-02-06T06:03:25.688Z,3.00
2023-02-06T06:05:54.384Z,3.00
2023-02-06T06:08:22.159Z,3.00
2023-02-06T06:10:52.847Z,3.00
2023-02-06T06:13:20.139Z,3.00
2023-02-06T06:15:53.255Z,3.00
2023-02-06T06:18:21.731Z,3.00
2023-02-06T06:20:49.460Z,3.00
2023-02-06T06:23:16.793Z,3.00
2023-02-06T06:25:44.172Z,3.10
2023-02-06T06:28:11.514Z,3.00
2023-02-06T06:30:38.816Z,3.00
2023-02-06T06:33:06.110Z,3.00
2023-02-06T06:35:35.167Z,3.00
2023-02-06T06:38:02.940Z,2.90
2023-02-06T06:40:30.159Z,3.00
2023-02-06T06:42:57.367Z,2.90
2023-02-06T06:45:24.713Z,2.80
2023-02-06T06:47:52.103Z,2.90
2023-02-06T06:50:19.372Z,2.90
2023-02-06T06:52:46.476Z,2.90
2023-02-06T06:55:13.834Z,2.90
2023-02-06T06:57:41.138Z,2.90
2023-02-06T07:00:09.383Z,2.90
2023-02-06T07:02:36.656Z,2.80
2023-02-06T07:05:04.751Z,2.80
2023-02-06T07:07:32.365Z,2.90
2023-02-06T07:10:01.527Z,2.90
2023-02-06T07:12:28.986Z,2.80
2023-02-06T07:14:56.081Z,2.80
2023-02-06T07:17:23.388Z,2.80
2023-02-06T07:19:52.647Z,2.80
2023-02-06T07:22:21.219Z,2.80
2023-02-06T07:24:48.975Z,2.80
2023-02-06T07:27:16.223Z,2.90
2023-02-06T07:29:43.369Z,2.90
2023-02-06T07:32:10.949Z,2.90
2023-02-06T07:34:38.455Z,2.90
2023-02-06T07:37:05.673Z,2.90
2023-02-06T07:39:33.104Z,2.90
2023-02-06T07:42:00.267Z,3.00
2023-02-06T07:44:33.465Z,3.00
2023-02-06T07:47:00.653Z,3.00
2023-02-06T07:49:27.793Z,3.00
2023-02-06T07:51:55.000Z,3.00
2023-02-06T07:54:22.482Z,2.90
2023-02-06T07:56:49.971Z,2.90
2023-02-06T07:59:17.414Z,2.90
2023-02-06T08:01:45.247Z,2.90
2023-02-06T08:04:12.843Z,3.00
2023-02-06T08:06:44.813Z,3.00
2023-02-06T08:09:17.709Z,3.00
2023-02-06T08:11:50.146Z,3.00
2023-02-06T08:14:17.813Z,3.00
2023-02-06T08:16:45.538Z,3.00
2023-02-06T08:19:13.062Z,3.10
2023-02-06T08:21:41.485Z,3.10
2023-02-06T08:24:12.517Z,3.10
2023-02-06T08:26:40.168Z,3.20
2023-02-06T08:29:08.771Z,3.20
2023-02-06T08:31:41.769Z,3.20
2023-02-06T08:34:14.585Z,3.20
2023-02-06T08:36:43.702Z,3.30
2023-02-06T08:39:14.291Z,3.30
2023-02-06T08:41:44.020Z,3.40
2023-02-06T08:44:17.701Z,3.40
2023-02-06T08:46:47.856Z,3.50
2023-02-06T08:49:20.375Z,3.60
2023-02-06T08:51:51.932Z,3.70
2023-02-06T08:54:22.758Z,3.70
2023-02-06T08:56:51.919Z,3.80
2023-02-06T08:59:20.492Z,3.80
2023-02-06T09:01:49.443Z,3.80
2023-02-06T09:04:17.811Z,3.80
2023-02-06T09:06:49.175Z,3.80
2023-02-06T09:09:16.654Z,3.90
2023-02-06T09:11:44.527Z,3.90
2023-02-06T09:14:17.525Z,3.90
2023-02-06T09:16:45.154Z,3.90
2023-02-06T09:19:13.632Z,3.80
2023-02-06T09:21:41.151Z,3.60
2023-02-06T09:24:09.889Z,3.50
2023-02-06T09:26:58.169Z,3.60
2023-02-06T09:29:31.763Z,3.70
2023-02-06T09:32:00.575Z,3.80
2023-02-06T09:34:28.777Z,4.00
2023-02-06T09:36:56.982Z,4.00
2023-02-06T09:39:24.964Z,4.00
2023-02-06T09:42:23.925Z,3.90
2023-02-06T09:45:15.921Z,3.80
2023-02-06T09:47:52.739Z,3.60
2023-02-06T09:50:48.014Z,3.60
2023-02-06T09:53:26.914Z,3.50
2023-02-06T09:56:36.854Z,3.60
2023-02-06T09:59:28.444Z,3.60
2023-02-06T10:02:26.567Z,3.60
2023-02-06T10:05:14.921Z,3.70
2023-02-06T10:08:16.537Z,3.80
2023-02-06T10:10:57.326Z,3.90
2023-02-06T10:13:44.493Z,4.10
2023-02-06T10:16:30.403Z,4.20
2023-02-06T10:19:16.749Z,4.10
2023-02-06T10:22:28.217Z,4.20
2023-02-06T10:25:25.518Z,4.10
2023-02-06T10:27:59.349Z,4.00
2023-02-06T10:31:17.902Z,4.00
2023-02-06T10:34:09.577Z,4.00
2023-02-06T10:36:56.600Z,4.10
2023-02-06T10:40:14.539Z,4.20
2023-02-06T10:43:12.285Z,4.20
2023-02-06T10:45:56.788Z,4.00
2023-02-06T10:48:36.377Z,4.00
2023-02-06T10:51:28.387Z,4.10
2023-02-06T10:54:01.880Z,4.20
2023-02-06T10:56:41.912Z,4.30
2023-02-06T10:59:28.245Z,4.40
2023-02-06T11:02:07.931Z,4.50
2023-02-06T11:04:40.565Z,4.60
2023-02-06T11:07:26.401Z,4.70
2023-02-06T11:09:54.389Z,4.70
2023-02-06T11:12:39.756Z,4.80
2023-02-06T11:15:26.055Z,4.70
2023-02-06T11:17:54.579Z,4.50
2023-02-06T11:20:30.574Z,4.40
2023-02-06T11:23:14.327Z,4.30
2023-02-06T11:25:42.381Z,4.30
2023-02-06T11:28:18.185Z,4.40
2023-02-06T11:30:59.426Z,4.40
2023-02-06T11:33:39.041Z,4.30
2023-02-06T11:36:23.050Z,4.30
2023-02-06T11:39:20.233Z,4.40
2023-02-06T11:42:13.747Z,4.40
2023-02-06T11:44:44.421Z,4.50
2023-02-06T11:47:38.159Z,4.50
2023-02-06T11:50:14.994Z,4.40
2023-02-06T11:52:46.960Z,4.30
2023-02-06T11:55:31.582Z,4.10
2023-02-06T11:58:13.895Z,4.10
2023-02-06T12:01:06.198Z,4.00
2023-02-06T12:03:39.076Z,4.10
2023-02-06T12:06:15.693Z,4.20
2023-02-06T12:08:49.772Z,4.30
2023-02-06T12:11:26.196Z,4.40
2023-02-06T12:14:20.262Z,4.40
2023-02-06T12:16:48.312Z,4.30
2023-02-06T12:19:31.774Z,4.30
2023-02-06T12:22:18.582Z,4.30
2023-02-06T12:24:51.288Z,4.40
2023-02-06T12:27:30.702Z,4.40
2023-02-06T12:30:26.008Z,4.30
2023-02-06T12:33:18.642Z,4.20
2023-02-06T12:35:56.350Z,4.30
2023-02-06T12:38:52.427Z,4.40
2023-02-06T12:42:17.243Z,4.40
2023-02-06T12:44:57.672Z,4.50
2023-02-06T12:47:48.947Z,4.50
2023-02-06T12:50:23.357Z,4.40
2023-02-06T12:53:06.731Z,4.40
2023-02-06T12:56:24.952Z,4.30
2023-02-06T12:59:10.592Z,4.30
2023-02-06T13:02:05.531Z,4.30
2023-02-06T13:04:36.234Z,4.20
2023-02-06T13:07:07.321Z,4.20
2023-02-06T13:09:41.858Z,4.20
2023-02-06T13:12:13.749Z,4.30
2023-02-06T13:15:05.342Z,4.30
2023-02-06T13:17:37.642Z,4.30
2023-02-06T13:20:11.139Z,4.40
2023-02-06T13:22:44.777Z,4.30
2023-02-06T13:25:30.608Z,4.30
2023-02-06T13:28:23.385Z,4.30
2023-02-06T13:31:08.055Z,4.40
2023-02-06T13:33:58.399Z,4.30
2023-02-06T13:36:47.784Z,4.30
2023-02-06T13:39:24.324Z,4.40
2023-02-06T13:41:52.902Z,4.40
2023-02-06T13:44:32.900Z,4.40
2023-02-06T13:47:49.310Z,4.40
2023-02-06T13:50:19.481Z,4.50
2023-02-06T13:53:07.022Z,4.50
2023-02-06T13:56:09.100Z,4.50
2023-02-06T13:58:44.163Z,4.60
2023-02-06T14:01:28.233Z,4.70
2023-02-06T14:03:56.689Z,4.90
2023-02-06T14:06:30.043Z,5.00
2023-02-06T14:09:18.654Z,5.00
2023-02-06T14:12:23.164Z,5.10
2023-02-06T14:15:17.711Z,5.10
2023-02-06T14:17:56.097Z,5.10
2023-02-06T14:20:47.081Z,5.10
2023-02-06T14:23:39.297Z,5.10
2023-02-06T14:26:18.507Z,5.10
2023-02-06T14:29:10.185Z,5.10
2023-02-06T14:32:03.241Z,5.20
2023-02-06T14:34:56.313Z,5.20
2023-02-06T14:37:35.862Z,5.20
2023-02-06T14:40:16.561Z,5.00
2023-02-06T14:42:46.218Z,4.90
2023-02-06T14:45:46.212Z,4.80
2023-02-06T14:48:24.768Z,4.70
2023-02-06T14:50:56.924Z,4.60
2023-02-06T14:53:38.114Z,4.60
2023-02-06T14:56:19.876Z,4.50
2023-02-06T14:58:48.642Z,4.40
2023-02-06T15:01:19.025Z,4.40
2023-02-06T15:03:49.786Z,4.30
2023-02-06T15:06:38.467Z,4.10
2023-02-06T15:09:07.554Z,3.90
2023-02-06T15:11:35.236Z,3.70
2023-02-06T15:14:15.202Z,3.60
2023-02-06T15:16:48.918Z,3.50
2023-02-06T15:19:24.051Z,3.40
2023-02-06T15:22:00.640Z,3.30
2023-02-06T15:24:44.056Z,3.30
2023-02-06T15:27:22.724Z,3.20
2023-02-06T15:29:50.804Z,3.10
2023-02-06T15:32:47.318Z,3.10
2023-02-06T15:35:49.535Z,3.00
2023-02-06T15:38:17.319Z,2.90
2023-02-06T15:40:52.282Z,2.90
2023-02-06T15:43:25.445Z,2.90
2023-02-06T15:45:56.543Z,2.90
2023-02-06T15:48:25.855Z,2.80
2023-02-06T15:50:57.803Z,2.80
2023-02-06T15:53:34.423Z,2.70
2023-02-06T15:56:06.097Z,2.60
2023-02-06T15:58:34.625Z,2.60
2023-02-06T16:01:05.805Z,2.60
2023-02-06T16:03:33.460Z,2.50
2023-02-06T16:06:01.112Z,2.40
2023-02-06T16:08:36.507Z,2.40
2023-02-06T16:11:28.894Z,2.40
2023-02-06T16:13:57.517Z,2.40
2023-02-06T16:16:27.097Z,2.40
2023-02-06T16:18:58.566Z,2.40
2023-02-06T16:21:30.923Z,2.30
2023-02-06T16:24:04.826Z,2.30
2023-02-06T16:26:52.413Z,2.30
2023-02-06T16:29:32.072Z,2.20
2023-02-06T16:32:15.893Z,2.20
2023-02-06T16:34:45.968Z,2.10
2023-02-06T16:37:23.513Z,2.00
2023-02-06T16:39:51.620Z,2.00
2023-02-06T16:42:22.914Z,1.90
2023-02-06T16:45:02.461Z,1.80
2023-02-06T16:47:29.817Z,1.70
2023-02-06T16:49:57.263Z,1.70
2023-02-06T16:52:31.651Z,1.60
2023-02-06T16:55:00.330Z,1.60
2023-02-06T16:57:38.210Z,1.50
2023-02-06T17:00:17.105Z,1.40
2023-02-06T17:02:45.580Z,1.30
2023-02-06T17:05:14.805Z,1.30
2023-02-06T17:07:42.691Z,1.20
2023-02-06T17:10:12.827Z,1.20
2023-02-06T17:12:40.447Z,1.10
2023-02-06T17:15:12.566Z,1.00
2023-02-06T17:17:40.972Z,1.00
2023-02-06T17:20:32.784Z,0.90
2023-02-06T17:23:00.286Z,0.80
2023-02-06T17:25:27.949Z,0.80
2023-02-06T17:27:55.605Z,0.70
2023-02-06T17:30:25.827Z,0.70
2023-02-06T17:32:53.622Z,0.70
2023-02-06T17:35:21.614Z,0.60
2023-02-06T17:37:49.399Z,0.50
2023-02-06T17:40:26.103Z,0.50
2023-02-06T17:42:59.419Z,0.40
2023-02-06T17:45:30.127Z,0.40
2023-02-06T17:47:59.353Z,0.40
2023-02-06T17:50:29.976Z,0.40
2023-02-06T17:52:59.027Z,0.30
2023-02-06T17:55:28.218Z,0.40
2023-02-06T17:57:55.956Z,0.40
2023-02-06T18:00:25.040Z,0.50
2023-02-06T18:02:54.851Z,0.40
2023-02-06T18:05:23.633Z,0.40
2023-02-06T18:07:52.153Z,0.40
2023-02-06T18:10:23.057Z,0.40
2023-02-06T18:12:50.764Z,0.30
2023-02-06T18:15:18.421Z,0.30
2023-02-06T18:17:46.271Z,0.30
2023-02-06T18:20:15.526Z,0.30
2023-02-06T18:22:43.235Z,0.20
2023-02-06T18:25:13.730Z,0.20
2023-02-06T18:27:42.964Z,0.20
2023-02-06T18:30:11.849Z,0.20
2023-02-06T18:32:39.683Z,0.10
2023-02-06T18:35:09.044Z,0.10
2023-02-06T18:37:36.715Z,0.00
2023-02-06T18:40:04.949Z,0.00
2023-02-06T18:42:51.134Z,-0.10
2023-02-06T18:45:22.967Z,-0.10
2023-02-06T18:47:53.345Z,-0.10
2023-02-06T18:50:21.991Z,-0.20
2023-02-06T18:52:50.620Z,-0.20
2023-02-06T18:55:18.493Z,-0.30
2023-02-06T18:57:46.495Z,-0.30
2023-02-06T19:00:19.620Z,-0.40
2023-02-06T19:02:47.654Z,-0.40
2023-02-06T19:05:15.704Z,-0.40
2023-02-06T19:07:43.429Z,-0.50
2023-02-06T19:10:13.232Z,-0.50
2023-02-06T19:12:40.823Z,-0.50
2023-02-06T19:15:09.265Z,-0.50
2023-02-06T19:17:36.871Z,-0.50
2023-02-06T19:20:06.994Z,-0.50
2023-02-06T19:22:38.663Z,-0.50
2023-02-06T19:25:11.365Z,-0.50
2023-02-06T19:27:39.611Z,-0.50
2023-02-06T19:30:08.272Z,-0.50
2023-02-06T19:32:36.434Z,-0.60
2023-02-06T19:35:05.016Z,-0.60
2023-02-06T19:37:32.582Z,-0.70
2023-02-06T19:40:00.147Z,-0.70
2023-02-06T19:42:28.176Z,-0.70
2023-02-06T19:44:56.069Z,-0.70
2023-02-06T19:47:23.966Z,-0.70
2023-02-06T19:49:54.280Z,-0.70
2023-02-06T19:52:21.736Z,-0.70
2023-02-06T19:54:49.040Z,-0.70
2023-02-06T19:57:19.360Z,-0.70
2023-02-06T19:59:46.802Z,-0.80
2023-02-06T20:02:15.793Z,-0.80
2023-02-06T20:04:43.195Z,-0.80
2023-02-06T20:07:11.219Z,-0.90
2023-02-06T20:09:41.924Z,-0.90
2023-02-06T20:12:11.465Z,-0.90
2023-02-06T20:14:38.970Z,-0.90
2023-02-06T20:17:06.377Z,-0.90
2023-02-06T20:19:33.732Z,-1.00
2023-02-06T20:22:01.317Z,-0.90
2023-02-06T20:24:31.758Z,-0.90
2023-02-06T20:27:03.139Z,-0.90
2023-02-06T20:29:37.999Z,-0.90
2023-02-06T20:32:07.150Z,-0.90
2023-02-06T20:34:35.549Z,-0.80
2023-02-06T20:37:03.331Z,-0.80
2023-02-06T20:39:31.196Z,-0.90
2023-02-06T20:42:01.662Z,-0.90
2023-02-06T20:44:29.803Z,-0.90
2023-02-06T20:46:57.410Z,-1.00
2023-02-06T20:49:27.768Z,-0.90
2023-02-06T20:51:55.174Z,-0.90
2023-02-06T20:54:24.035Z,-0.90
2023-02-06T20:56:51.989Z,-0.90
2023-02-06T20:59:20.527Z,-0.90
2023-02-06T21:01:48.276Z,-0.80
2023-02-06T21:04:17.753Z,-0.80
2023-02-06T21:06:48.731Z,-0.70
2023-02-06T21:09:17.680Z,-0.80
2023-02-06T21:11:50.156Z,-0.80
2023-02-06T21:14:18.890Z,-0.90
2023-02-06T21:16:47.016Z,-0.80
2023-02-06T21:19:17.632Z,-0.90
2023-02-06T21:21:46.309Z,-0.90
2023-02-06T21:24:15.425Z,-0.90
2023-02-06T21:26:43.809Z,-0.90
2023-02-06T21:29:12.808Z,-0.90
2023-02-06T21:31:41.346Z,-0.90
2023-02-06T21:34:26.933Z,-0.90
2023-02-06T21:36:54.664Z,-0.90
2023-02-06T21:39:27.010Z,-1.10
2023-02-06T21:41:54.742Z,-0.90
2023-02-06T21:44:25.709Z,-0.90
2023-02-06T21:46:53.820Z,-0.90
2023-02-06T21:49:23.283Z,-1.00
2023-02-06T21:51:53.468Z,-1.00
2023-02-06T21:54:22.616Z,-1.00
2023-02-06T21:56:50.522Z,-1.00
2023-02-06T21:59:18.146Z,-1.10
2023-02-06T22:01:46.322Z,-1.10
2023-02-06T22:04:14.145Z,-1.10
2023-02-06T22:06:41.788Z,-1.10
2023-02-06T22:09:15.899Z,-1.10
2023-02-06T22:11:45.255Z,-1.10
2023-02-06T22:14:16.774Z,-1.20
2023-02-06T22:16:46.869Z,-1.20
2023-02-06T22:19:16.177Z,-1.20
2023-02-06T22:21:44.079Z,-1.20
2023-02-06T22:24:12.485Z,-1.30
2023-02-06T22:26:41.599Z,-1.40
2023-02-06T22:29:14.788Z,-1.40
2023-02-06T22:31:44.002Z,-1.40
2023-02-06T22:34:18.155Z,-1.50
2023-02-06T22:36:46.234Z,-1.50
2023-02-06T22:39:15.041Z,-1.50
2023-02-06T22:41:45.823Z,-1.50
2023-02-06T22:44:16.602Z,-1.50
2023-02-06T22:46:48.437Z,-1.50
2023-02-06T22:49:16.683Z,-1.60
2023-02-06T22:51:44.706Z,-1.60
2023-02-06T22:54:13.898Z,-1.60
2023-02-06T22:56:43.570Z,-1.60
2023-02-06T22:59:22.347Z,-1.70
2023-02-06T23:01:54.968Z,-1.70
2023-02-06T23:04:29.725Z,-1.70
2023-02-06T23:06:57.245Z,-1.80
2023-02-06T23:09:31.818Z,-1.80
2023-02-06T23:12:00.021Z,-1.80
2023-02-06T23:14:30.141Z,-1.80
2023-02-06T23:16:59.968Z,-1.70
2023-02-06T23:19:28.110Z,-1.70
2023-02-06T23:21:55.851Z,-1.60
2023-02-06T23:24:23.286Z,-1.60
2023-02-06T23:26:53.722Z,-1.60
2023-02-06T23:29:23.095Z,-1.60
2023-02-06T23:31:51.458Z,-1.50
2023-02-06T23:34:19.998Z,-1.50
2023-02-06T23:36:47.848Z,-1.60
2023-02-06T23:39:15.805Z,-1.60
2023-02-06T23:41:43.299Z,-1.60
2023-02-06T23:44:11.318Z,-1.60
2023-02-06T23:46:40.763Z,-1.60
2023-02-06T23:49:09.019Z,-1.60
2023-02-06T23:51:38.167Z,-1.70
2023-02-06T23:54:08.152Z,-1.70
2023-02-06T23:56:36.093Z,-1.80
2023-02-06T23:59:06.903Z,-1.80
